sensor_id;sensor_type;location;lat;lon;timestamp;temperature;humidity
66568;DHT22;53422;49.296;6.900;2022-12-18T00:02:13;-4.50;99.90
66568;DHT22;53422;49.296;6.900;2022-12-18T00:04:38;-4.50;99.90
66568;DHT22;53422;49.296;6.900;2022-12-18T00:07:04;-4.50;99.90
66568;DHT22;53422;49.296;6.900;2022-12-18T00:09:30;-4.40;99.90
66568;DHT22;53422;49.296;6.900;2022-12-18T00:11:55;-4.50;99.90
66568;DHT22;53422;49.296;6.900;2022-12-18T00:14:21;-4.50;99.90
66568;DHT22;53422;49.296;6.900;2022-12-18T00:16:47;-4.50;99.90
66568;DHT22;53422;49.296;6.900;2022-12-18T00:19:13;-4.50;99.90
66568;DHT22;53422;49.296;6.900;2022-12-18T00:21:40;-4.50;99.90
66568;DHT22;53422;49.296;6.900;2022-12-18T00:24:06;-4.50;99.90
66568;DHT22;53422;49.296;6.900;2022-12-18T00:26:33;-4.50;99.90
66568;DHT22;53422;49.296;6.900;2022-12-18T00:29:01;-4.50;99.90
66568;DHT22;53422;49.296;6.900;2022-12-18T00:31:27;-4.50;99.90
66568;DHT22;53422;49.296;6.900;2022-12-18T00:33:56;-4.50;99.90
66568;DHT22;53422;49.296;6.900;2022-12-18T00:36:28;-4.60;99.90
66568;DHT22;53422;49.296;6.900;2022-12-18T00:38:55;-4.50;99.90
66568;DHT22;53422;49.296;6.900;2022-12-18T00:41:21;-4.60;99.90
66568;DHT22;53422;49.296;6.900;2022-12-18T00:44:06;-4.60;99.90
66568;DHT22;53422;49.296;6.900;2022-12-18T00:46:32;-4.60;99.90
66568;DHT22;53422;49.296;6.900;2022-12-18T00:48:58;-4.60;99.90
66568;DHT22;53422;49.296;6.900;2022-12-18T00:51:24;-4.70;99.90
66568;DHT22;53422;49.296;6.900;2022-12-18T00:53:50;-4.80;99.90
66568;DHT22;53422;49.296;6.900;2022-12-18T00:56:16;-4.80;99.90
66568;DHT22;53422;49.296;6.900;2022-12-18T00:58:41;-4.80;99.90
66568;DHT22;53422;49.296;6.900;2022-12-18T01:01:07;-4.70;99.90
66568;DHT22;53422;49.296;6.900;2022-12-18T01:03:33;-4.70;99.90
66568;DHT22;53422;49.296;6.900;2022-12-18T01:05:59;-4.60;99.90
66568;DHT22;53422;49.296;6.900;2022-12-18T01:08:25;-4.60;99.90
66568;DHT22;53422;49.296;6.900;2022-12-18T01:10:50;-4.60;99.90
66568;DHT22;53422;49.296;6.900;2022-12-18T01:13:16;-4.60;99.90
66568;DHT22;53422;49.296;6.900;2022-12-18T01:15:50;-4.50;99.90
66568;DHT22;53422;49.296;6.900;2022-12-18T01:18:16;-4.50;99.90
66568;DHT22;53422;49.296;6.900;2022-12-18T01:20:42;-4.50;99.90
66568;DHT22;53422;49.296;6.900;2022-12-18T01:23:08;-4.50;99.90
66568;DHT22;53422;49.296;6.900;2022-12-18T01:25:35;-4.50;99.90
66568;DHT22;53422;49.296;6.900;2022-12-18T01:28:02;-4.40;99.90
66568;DHT22;53422;49.296;6.900;2022-12-18T01:30:27;-4.40;99.90
66568;DHT22;53422;49.296;6.900;2022-12-18T01:32:53;-4.50;99.90
66568;DHT22;53422;49.296;6.900;2022-12-18T01:35:19;-4.50;99.90
66568;DHT22;53422;49.296;6.900;2022-12-18T01:37:44;-4.50;99.90
66568;DHT22;53422;49.296;6.900;2022-12-18T01:40:10;-4.50;99.90
66568;DHT22;53422;49.296;6.900;2022-12-18T01:42:36;-4.50;99.90
66568;DHT22;53422;49.296;6.900;2022-12-18T01:47:44;-4.70;99.90
66568;DHT22;53422;49.296;6.900;2022-12-18T01:50:13;-4.60;99.90
66568;DHT22;53422;49.296;6.900;2022-12-18T01:52:43;-4.60;99.90
66568;DHT22;53422;49.296;6.900;2022-12-18T01:55:12;-4.60;99.90
66568;DHT22;53422;49.296;6.900;2022-12-18T01:57:40;-4.60;99.90
66568;DHT22;53422;49.296;6.900;2022-12-18T02:00:12;-4.70;99.90
66568;DHT22;53422;49.296;6.900;2022-12-18T02:02:39;-4.70;99.90
66568;DHT22;53422;49.296;6.900;2022-12-18T02:05:06;-4.70;99.90
66568;DHT22;53422;49.296;6.900;2022-12-18T02:07:43;-4.70;99.90
66568;DHT22;53422;49.296;6.900;2022-12-18T02:10:19;-4.60;99.90
66568;DHT22;53422;49.296;6.900;2022-12-18T02:18:32;-4.50;99.90
66568;DHT22;53422;49.296;6.900;2022-12-18T02:21:49;-4.40;99.90
66568;DHT22;53422;49.296;6.900;2022-12-18T02:29:18;-4.50;99.90
66568;DHT22;53422;49.296;6.900;2022-12-18T02:31:52;-4.40;99.90
66568;DHT22;53422;49.296;6.900;2022-12-18T02:34:21;-4.40;99.90
66568;DHT22;53422;49.296;6.900;2022-12-18T02:36:48;-4.40;99.90
66568;DHT22;53422;49.296;6.900;2022-12-18T02:39:16;-4.40;99.90
66568;DHT22;53422;49.296;6.900;2022-12-18T02:41:43;-4.40;99.90
66568;DHT22;53422;49.296;6.900;2022-12-18T02:44:11;-4.40;99.90
66568;DHT22;53422;49.296;6.900;2022-12-18T02:46:40;-4.40;99.90
66568;DHT22;53422;49.296;6.900;2022-12-18T02:49:10;-4.40;99.90
66568;DHT22;53422;49.296;6.900;2022-12-18T02:51:57;-4.40;99.90
66568;DHT22;53422;49.296;6.900;2022-12-18T02:57:34;-4.40;99.90
66568;DHT22;53422;49.296;6.900;2022-12-18T03:05:28;-4.60;99.90
66568;DHT22;53422;49.296;6.900;2022-12-18T03:08:03;-4.60;99.90
66568;DHT22;53422;49.296;6.900;2022-12-18T03:10:31;-4.50;99.90
66568;DHT22;53422;49.296;6.900;2022-12-18T03:13:08;-4.50;99.90
66568;DHT22;53422;49.296;6.900;2022-12-18T03:15:38;-4.50;99.90
66568;DHT22;53422;49.296;6.900;2022-12-18T03:18:10;-4.50;99.90
66568;DHT22;53422;49.296;6.900;2022-12-18T03:20:39;-4.50;99.90
66568;DHT22;53422;49.296;6.900;2022-12-18T03:23:13;-4.40;99.90
66568;DHT22;53422;49.296;6.900;2022-12-18T03:25:43;-4.40;99.90
66568;DHT22;53422;49.296;6.900;2022-12-18T03:28:15;-4.30;99.90
66568;DHT22;53422;49.296;6.900;2022-12-18T03:30:43;-4.30;99.90
66568;DHT22;53422;49.296;6.900;2022-12-18T03:33:12;-4.30;99.90
66568;DHT22;53422;49.296;6.900;2022-12-18T03:35:41;-4.30;99.90
66568;DHT22;53422;49.296;6.900;2022-12-18T03:38:08;-4.20;99.90
66568;DHT22;53422;49.296;6.900;2022-12-18T03:40:58;-4.20;99.90
66568;DHT22;53422;49.296;6.900;2022-12-18T03:43:51;-4.20;99.90
66568;DHT22;53422;49.296;6.900;2022-12-18T03:46:33;-4.20;99.90
66568;DHT22;53422;49.296;6.900;2022-12-18T03:49:11;-4.30;99.90
66568;DHT22;53422;49.296;6.900;2022-12-18T03:51:39;-4.20;99.90
66568;DHT22;53422;49.296;6.900;2022-12-18T03:54:06;-4.30;99.90
66568;DHT22;53422;49.296;6.900;2022-12-18T03:56:38;-4.30;99.90
66568;DHT22;53422;49.296;6.900;2022-12-18T03:59:06;-4.30;99.90
66568;DHT22;53422;49.296;6.900;2022-12-18T04:01:48;-4.30;99.90
66568;DHT22;53422;49.296;6.900;2022-12-18T04:04:16;-4.30;99.90
66568;DHT22;53422;49.296;6.900;2022-12-18T04:06:44;-4.40;99.90
66568;DHT22;53422;49.296;6.900;2022-12-18T04:09:11;-4.30;99.90
66568;DHT22;53422;49.296;6.900;2022-12-18T04:11:37;-4.40;99.90
66568;DHT22;53422;49.296;6.900;2022-12-18T04:14:03;-4.40;99.90
66568;DHT22;53422;49.296;6.900;2022-12-18T04:16:29;-4.40;99.90
66568;DHT22;53422;49.296;6.900;2022-12-18T04:18:55;-4.30;99.90
66568;DHT22;53422;49.296;6.900;2022-12-18T04:21:20;-4.40;99.90
66568;DHT22;53422;49.296;6.900;2022-12-18T04:23:46;-4.30;99.90
66568;DHT22;53422;49.296;6.900;2022-12-18T04:26:12;-4.40;99.90
66568;DHT22;53422;49.296;6.900;2022-12-18T04:28:38;-4.40;99.90
66568;DHT22;53422;49.296;6.900;2022-12-18T04:31:03;-4.40;99.90
66568;DHT22;53422;49.296;6.900;2022-12-18T04:33:29;-4.40;99.90
66568;DHT22;53422;49.296;6.900;2022-12-18T04:35:55;-4.40;99.90
66568;DHT22;53422;49.296;6.900;2022-12-18T04:38:20;-4.40;99.90
66568;DHT22;53422;49.296;6.900;2022-12-18T04:40:46;-4.40;99.90
66568;DHT22;53422;49.296;6.900;2022-12-18T04:43:11;-4.40;99.90
66568;DHT22;53422;49.296;6.900;2022-12-18T04:45:37;-4.40;99.90
66568;DHT22;53422;49.296;6.900;2022-12-18T04:48:03;-4.40;99.90
66568;DHT22;53422;49.296;6.900;2022-12-18T04:50:29;-4.30;99.90
66568;DHT22;53422;49.296;6.900;2022-12-18T04:52:55;-4.30;99.90
66568;DHT22;53422;49.296;6.900;2022-12-18T04:55:21;-4.30;99.90
66568;DHT22;53422;49.296;6.900;2022-12-18T04:57:50;-4.40;99.90
66568;DHT22;53422;49.296;6.900;2022-12-18T05:00:15;-4.40;99.90
66568;DHT22;53422;49.296;6.900;2022-12-18T05:02:41;-4.40;99.90
66568;DHT22;53422;49.296;6.900;2022-12-18T05:05:07;-4.40;99.90
66568;DHT22;53422;49.296;6.900;2022-12-18T05:07:33;-4.40;99.90
66568;DHT22;53422;49.296;6.900;2022-12-18T05:09:58;-4.40;99.90
66568;DHT22;53422;49.296;6.900;2022-12-18T05:12:24;-4.40;99.90
66568;DHT22;53422;49.296;6.900;2022-12-18T05:14:49;-4.50;99.90
66568;DHT22;53422;49.296;6.900;2022-12-18T05:17:15;-4.50;99.90
66568;DHT22;53422;49.296;6.900;2022-12-18T05:19:40;-4.50;99.90
66568;DHT22;53422;49.296;6.900;2022-12-18T05:22:06;-4.50;99.90
66568;DHT22;53422;49.296;6.900;2022-12-18T05:24:34;-4.60;99.90
66568;DHT22;53422;49.296;6.900;2022-12-18T05:27:00;-4.60;99.90
66568;DHT22;53422;49.296;6.900;2022-12-18T05:29:26;-4.60;99.90
66568;DHT22;53422;49.296;6.900;2022-12-18T05:31:51;-4.60;99.90
66568;DHT22;53422;49.296;6.900;2022-12-18T05:34:17;-4.60;99.90
66568;DHT22;53422;49.296;6.900;2022-12-18T05:36:42;-4.60;99.90
66568;DHT22;53422;49.296;6.900;2022-12-18T05:39:08;-4.60;99.90
66568;DHT22;53422;49.296;6.900;2022-12-18T05:41:34;-4.70;99.90
66568;DHT22;53422;49.296;6.900;2022-12-18T05:43:59;-4.60;99.90
66568;DHT22;53422;49.296;6.900;2022-12-18T05:46:25;-4.60;99.90
66568;DHT22;53422;49.296;6.900;2022-12-18T05:48:51;-4.60;99.90
66568;DHT22;53422;49.296;6.900;2022-12-18T05:51:20;-4.60;99.90
66568;DHT22;53422;49.296;6.900;2022-12-18T05:53:47;-4.70;99.90
66568;DHT22;53422;49.296;6.900;2022-12-18T05:56:16;-4.90;99.90
66568;DHT22;53422;49.296;6.900;2022-12-18T05:58:42;-4.90;99.90
66568;DHT22;53422;49.296;6.900;2022-12-18T06:01:12;-4.90;99.90
66568;DHT22;53422;49.296;6.900;2022-12-18T06:03:38;-4.90;99.90
66568;DHT22;53422;49.296;6.900;2022-12-18T06:06:13;-4.90;99.90
66568;DHT22;53422;49.296;6.900;2022-12-18T06:08:38;-4.80;99.90
66568;DHT22;53422;49.296;6.900;2022-12-18T06:11:04;-4.80;99.90
66568;DHT22;53422;49.296;6.900;2022-12-18T06:13:30;-4.80;99.90
66568;DHT22;53422;49.296;6.900;2022-12-18T06:15:55;-4.70;99.90
66568;DHT22;53422;49.296;6.900;2022-12-18T06:18:21;-4.70;99.90
66568;DHT22;53422;49.296;6.900;2022-12-18T06:20:54;-4.70;99.90
66568;DHT22;53422;49.296;6.900;2022-12-18T06:23:21;-4.70;99.90
66568;DHT22;53422;49.296;6.900;2022-12-18T06:25:46;-4.60;99.90
66568;DHT22;53422;49.296;6.900;2022-12-18T06:28:12;-4.70;99.90
66568;DHT22;53422;49.296;6.900;2022-12-18T06:30:37;-4.70;99.90
66568;DHT22;53422;49.296;6.900;2022-12-18T06:33:03;-4.70;99.90
66568;DHT22;53422;49.296;6.900;2022-12-18T06:35:28;-4.70;99.90
66568;DHT22;53422;49.296;6.900;2022-12-18T06:37:54;-4.70;99.90
66568;DHT22;53422;49.296;6.900;2022-12-18T06:40:20;-4.70;99.90
66568;DHT22;53422;49.296;6.900;2022-12-18T06:42:46;-4.70;99.90
66568;DHT22;53422;49.296;6.900;2022-12-18T06:45:11;-4.80;99.90
66568;DHT22;53422;49.296;6.900;2022-12-18T06:47:40;-4.90;99.90
66568;DHT22;53422;49.296;6.900;2022-12-18T06:50:06;-4.90;99.90
66568;DHT22;53422;49.296;6.900;2022-12-18T06:52:32;-4.80;99.90
66568;DHT22;53422;49.296;6.900;2022-12-18T06:54:58;-4.80;99.90
66568;DHT22;53422;49.296;6.900;2022-12-18T06:57:23;-4.70;99.90
66568;DHT22;53422;49.296;6.900;2022-12-18T06:59:49;-4.70;99.90
66568;DHT22;53422;49.296;6.900;2022-12-18T07:02:14;-4.70;99.90
66568;DHT22;53422;49.296;6.900;2022-12-18T07:04:40;-4.70;99.90
66568;DHT22;53422;49.296;6.900;2022-12-18T07:07:06;-4.70;99.90
66568;DHT22;53422;49.296;6.900;2022-12-18T07:09:31;-4.60;99.90
66568;DHT22;53422;49.296;6.900;2022-12-18T07:11:57;-4.70;99.90
66568;DHT22;53422;49.296;6.900;2022-12-18T07:14:22;-4.60;99.90
66568;DHT22;53422;49.296;6.900;2022-12-18T07:16:48;-4.60;99.90
66568;DHT22;53422;49.296;6.900;2022-12-18T07:19:13;-4.60;99.90
66568;DHT22;53422;49.296;6.900;2022-12-18T07:21:39;-4.60;99.90
66568;DHT22;53422;49.296;6.900;2022-12-18T07:24:05;-4.60;99.90
66568;DHT22;53422;49.296;6.900;2022-12-18T07:26:31;-4.60;99.90
66568;DHT22;53422;49.296;6.900;2022-12-18T07:28:57;-4.60;99.90
66568;DHT22;53422;49.296;6.900;2022-12-18T07:31:23;-4.60;99.90
66568;DHT22;53422;49.296;6.900;2022-12-18T07:33:49;-4.60;99.90
66568;DHT22;53422;49.296;6.900;2022-12-18T07:36:15;-4.60;99.90
66568;DHT22;53422;49.296;6.900;2022-12-18T07:38:41;-4.60;99.90
66568;DHT22;53422;49.296;6.900;2022-12-18T07:41:12;-4.60;99.90
66568;DHT22;53422;49.296;6.900;2022-12-18T07:43:38;-4.70;99.90
66568;DHT22;53422;49.296;6.900;2022-12-18T07:46:04;-4.70;99.90
66568;DHT22;53422;49.296;6.900;2022-12-18T07:48:30;-4.60;99.90
66568;DHT22;53422;49.296;6.900;2022-12-18T07:51:00;-4.70;99.90
66568;DHT22;53422;49.296;6.900;2022-12-18T07:53:26;-4.60;99.90
66568;DHT22;53422;49.296;6.900;2022-12-18T07:55:59;-4.80;99.90
66568;DHT22;53422;49.296;6.900;2022-12-18T07:58:26;-4.80;99.90
66568;DHT22;53422;49.296;6.900;2022-12-18T08:00:52;-4.90;99.90
66568;DHT22;53422;49.296;6.900;2022-12-18T08:03:18;-5.00;99.90
66568;DHT22;53422;49.296;6.900;2022-12-18T08:05:44;-5.10;99.90
66568;DHT22;53422;49.296;6.900;2022-12-18T08:08:09;-5.10;99.90
66568;DHT22;53422;49.296;6.900;2022-12-18T08:10:35;-5.10;99.90
66568;DHT22;53422;49.296;6.900;2022-12-18T08:13:01;-4.90;99.90
66568;DHT22;53422;49.296;6.900;2022-12-18T08:15:26;-4.90;99.90
66568;DHT22;53422;49.296;6.900;2022-12-18T08:17:52;-4.80;99.90
66568;DHT22;53422;49.296;6.900;2022-12-18T08:20:21;-4.90;99.90
66568;DHT22;53422;49.296;6.900;2022-12-18T08:22:46;-4.80;99.90
66568;DHT22;53422;49.296;6.900;2022-12-18T08:25:12;-4.80;99.90
66568;DHT22;53422;49.296;6.900;2022-12-18T08:27:38;-4.80;99.90
66568;DHT22;53422;49.296;6.900;2022-12-18T08:30:04;-4.70;99.90
66568;DHT22;53422;49.296;6.900;2022-12-18T08:32:30;-4.70;99.90
66568;DHT22;53422;49.296;6.900;2022-12-18T08:34:55;-4.70;99.90
66568;DHT22;53422;49.296;6.900;2022-12-18T08:37:21;-4.70;99.90
66568;DHT22;53422;49.296;6.900;2022-12-18T08:39:47;-4.70;99.90
66568;DHT22;53422;49.296;6.900;2022-12-18T08:42:12;-4.70;99.90
66568;DHT22;53422;49.296;6.900;2022-12-18T08:44:56;-4.60;99.90
66568;DHT22;53422;49.296;6.900;2022-12-18T08:47:22;-4.60;99.90
66568;DHT22;53422;49.296;6.900;2022-12-18T08:49:47;-4.60;99.90
66568;DHT22;53422;49.296;6.900;2022-12-18T08:52:13;-4.60;99.90
66568;DHT22;53422;49.296;6.900;2022-12-18T08:54:41;-4.60;99.90
66568;DHT22;53422;49.296;6.900;2022-12-18T08:57:07;-4.60;99.90
66568;DHT22;53422;49.296;6.900;2022-12-18T08:59:32;-4.70;99.90
66568;DHT22;53422;49.296;6.900;2022-12-18T09:01:58;-4.60;99.90
66568;DHT22;53422;49.296;6.900;2022-12-18T09:04:23;-4.60;99.90
66568;DHT22;53422;49.296;6.900;2022-12-18T09:06:49;-4.60;99.90
66568;DHT22;53422;49.296;6.900;2022-12-18T09:09:15;-4.60;99.90
66568;DHT22;53422;49.296;6.900;2022-12-18T09:11:40;-4.50;99.90
66568;DHT22;53422;49.296;6.900;2022-12-18T09:14:06;-4.50;99.90
66568;DHT22;53422;49.296;6.900;2022-12-18T09:16:32;-4.40;99.90
66568;DHT22;53422;49.296;6.900;2022-12-18T09:19:00;-4.40;99.90
66568;DHT22;53422;49.296;6.900;2022-12-18T09:21:28;-4.40;99.90
66568;DHT22;53422;49.296;6.900;2022-12-18T09:23:55;-4.40;99.90
66568;DHT22;53422;49.296;6.900;2022-12-18T09:26:22;-4.40;99.90
66568;DHT22;53422;49.296;6.900;2022-12-18T09:28:49;-4.40;99.90
66568;DHT22;53422;49.296;6.900;2022-12-18T09:31:16;-4.50;99.90
66568;DHT22;53422;49.296;6.900;2022-12-18T09:33:41;-4.50;99.90
66568;DHT22;53422;49.296;6.900;2022-12-18T09:36:14;-4.50;99.90
66568;DHT22;53422;49.296;6.900;2022-12-18T09:38:40;-4.40;99.90
66568;DHT22;53422;49.296;6.900;2022-12-18T09:43:46;-4.50;99.90
66568;DHT22;53422;49.296;6.900;2022-12-18T09:46:21;-4.50;99.90
66568;DHT22;53422;49.296;6.900;2022-12-18T09:48:52;-4.50;99.90
66568;DHT22;53422;49.296;6.900;2022-12-18T09:53:50;-4.60;99.90
66568;DHT22;53422;49.296;6.900;2022-12-18T09:56:20;-4.60;99.90
66568;DHT22;53422;49.296;6.900;2022-12-18T09:58:59;-4.80;99.90
66568;DHT22;53422;49.296;6.900;2022-12-18T10:01:26;-4.70;99.90
66568;DHT22;53422;49.296;6.900;2022-12-18T10:03:53;-4.50;99.90
66568;DHT22;53422;49.296;6.900;2022-12-18T10:12:17;-4.50;99.90
66568;DHT22;53422;49.296;6.900;2022-12-18T10:17:42;-4.50;99.90
66568;DHT22;53422;49.296;6.900;2022-12-18T10:20:18;-4.40;99.90
66568;DHT22;53422;49.296;6.900;2022-12-18T10:22:57;-4.30;99.90
66568;DHT22;53422;49.296;6.900;2022-12-18T10:25:51;-4.30;99.90
66568;DHT22;53422;49.296;6.900;2022-12-18T10:28:19;-4.30;99.90
66568;DHT22;53422;49.296;6.900;2022-12-18T10:30:45;-4.40;99.90
66568;DHT22;53422;49.296;6.900;2022-12-18T10:33:16;-4.40;99.90
66568;DHT22;53422;49.296;6.900;2022-12-18T10:35:42;-4.30;99.90
66568;DHT22;53422;49.296;6.900;2022-12-18T10:41:00;-4.30;99.90
66568;DHT22;53422;49.296;6.900;2022-12-18T10:43:31;-4.60;99.90
66568;DHT22;53422;49.296;6.900;2022-12-18T10:48:39;-4.30;99.90
66568;DHT22;53422;49.296;6.900;2022-12-18T10:51:06;-4.40;99.90
66568;DHT22;53422;49.296;6.900;2022-12-18T10:53:34;-4.40;99.90
66568;DHT22;53422;49.296;6.900;2022-12-18T10:56:02;-4.50;99.90
66568;DHT22;53422;49.296;6.900;2022-12-18T10:58:32;-4.30;99.90
66568;DHT22;53422;49.296;6.900;2022-12-18T11:01:16;-4.20;99.90
66568;DHT22;53422;49.296;6.900;2022-12-18T11:03:44;-4.10;99.90
66568;DHT22;53422;49.296;6.900;2022-12-18T11:06:15;-4.10;99.90
66568;DHT22;53422;49.296;6.900;2022-12-18T11:08:43;-4.10;99.90
66568;DHT22;53422;49.296;6.900;2022-12-18T11:11:35;-4.10;99.90
66568;DHT22;53422;49.296;6.900;2022-12-18T11:14:04;-4.10;99.90
66568;DHT22;53422;49.296;6.900;2022-12-18T11:16:36;-4.10;99.90
66568;DHT22;53422;49.296;6.900;2022-12-18T11:21:52;-4.00;99.90
66568;DHT22;53422;49.296;6.900;2022-12-18T11:24:31;-4.20;99.90
66568;DHT22;53422;49.296;6.900;2022-12-18T11:26:59;-4.20;99.90
66568;DHT22;53422;49.296;6.900;2022-12-18T11:29:37;-4.10;99.90
66568;DHT22;53422;49.296;6.900;2022-12-18T11:35:12;-4.00;99.90
66568;DHT22;53422;49.296;6.900;2022-12-18T11:37:43;-3.90;99.90
66568;DHT22;53422;49.296;6.900;2022-12-18T11:40:17;-4.00;99.90
66568;DHT22;53422;49.296;6.900;2022-12-18T11:42:50;-3.90;99.90
66568;DHT22;53422;49.296;6.900;2022-12-18T11:45:47;-3.80;99.90
66568;DHT22;53422;49.296;6.900;2022-12-18T11:50:55;-3.80;99.90
66568;DHT22;53422;49.296;6.900;2022-12-18T11:53:22;-3.80;99.90
66568;DHT22;53422;49.296;6.900;2022-12-18T11:58:41;-3.90;99.90
66568;DHT22;53422;49.296;6.900;2022-12-18T12:12:45;-3.80;99.90
66568;DHT22;53422;49.296;6.900;2022-12-18T12:15:38;-4.00;99.90
66568;DHT22;53422;49.296;6.900;2022-12-18T12:29:49;-3.80;99.90
66568;DHT22;53422;49.296;6.900;2022-12-18T12:38:09;-3.80;99.90
66568;DHT22;53422;49.296;6.900;2022-12-18T12:40:18;-3.80;99.90
66568;DHT22;53422;49.296;6.900;2022-12-18T12:42:57;-3.70;99.90
66568;DHT22;53422;49.296;6.900;2022-12-18T12:51:01;-3.90;99.90
66568;DHT22;53422;49.296;6.900;2022-12-18T12:53:35;-3.80;99.90
66568;DHT22;53422;49.296;6.900;2022-12-18T12:56:03;-3.70;99.90
66568;DHT22;53422;49.296;6.900;2022-12-18T12:58:38;-3.70;99.90
66568;DHT22;53422;49.296;6.900;2022-12-18T13:09:33;-3.60;99.90
66568;DHT22;53422;49.296;6.900;2022-12-18T13:12:03;-3.60;99.90
66568;DHT22;53422;49.296;6.900;2022-12-18T13:14:48;-3.50;99.90
66568;DHT22;53422;49.296;6.900;2022-12-18T13:22:44;-3.40;99.90
66568;DHT22;53422;49.296;6.900;2022-12-18T13:25:30;-3.40;99.90
66568;DHT22;53422;49.296;6.900;2022-12-18T13:28:13;-3.40;99.90
66568;DHT22;53422;49.296;6.900;2022-12-18T13:30:48;-3.50;99.90
66568;DHT22;53422;49.296;6.900;2022-12-18T13:38:23;-3.50;99.90
66568;DHT22;53422;49.296;6.900;2022-12-18T13:40:53;-3.40;99.90
66568;DHT22;53422;49.296;6.900;2022-12-18T13:48:25;-3.40;99.90
66568;DHT22;53422;49.296;6.900;2022-12-18T13:51:06;-3.50;99.90
66568;DHT22;53422;49.296;6.900;2022-12-18T13:53:43;-3.40;99.90
66568;DHT22;53422;49.296;6.900;2022-12-18T13:56:09;-3.40;99.90
66568;DHT22;53422;49.296;6.900;2022-12-18T13:58:40;-3.40;99.90
66568;DHT22;53422;49.296;6.900;2022-12-18T14:01:22;-3.40;99.90
66568;DHT22;53422;49.296;6.900;2022-12-18T14:03:48;-3.30;99.90
66568;DHT22;53422;49.296;6.900;2022-12-18T14:06:17;-3.30;99.90
66568;DHT22;53422;49.296;6.900;2022-12-18T14:08:43;-3.30;99.90
66568;DHT22;53422;49.296;6.900;2022-12-18T14:11:20;-3.30;99.90
66568;DHT22;53422;49.296;6.900;2022-12-18T14:13:47;-3.30;99.90
66568;DHT22;53422;49.296;6.900;2022-12-18T14:16:14;-3.30;99.90
66568;DHT22;53422;49.296;6.900;2022-12-18T14:18:52;-3.30;99.90
66568;DHT22;53422;49.296;6.900;2022-12-18T14:21:23;-3.40;99.90
66568;DHT22;53422;49.296;6.900;2022-12-18T14:24:03;-3.30;99.90
66568;DHT22;53422;49.296;6.900;2022-12-18T14:26:32;-3.30;99.90
66568;DHT22;53422;49.296;6.900;2022-12-18T14:29:09;-3.30;99.90
66568;DHT22;53422;49.296;6.900;2022-12-18T14:31:42;-3.30;99.90
66568;DHT22;53422;49.296;6.900;2022-12-18T14:34:15;-3.30;99.90
66568;DHT22;53422;49.296;6.900;2022-12-18T14:36:41;-3.30;99.90
66568;DHT22;53422;49.296;6.900;2022-12-18T14:39:17;-3.30;99.90
66568;DHT22;53422;49.296;6.900;2022-12-18T14:41:43;-3.30;99.90
66568;DHT22;53422;49.296;6.900;2022-12-18T14:44:12;-3.30;99.90
66568;DHT22;53422;49.296;6.900;2022-12-18T14:46:43;-3.40;99.90
66568;DHT22;53422;49.296;6.900;2022-12-18T14:49:32;-3.30;99.90
66568;DHT22;53422;49.296;6.900;2022-12-18T14:52:00;-3.30;99.90
66568;DHT22;53422;49.296;6.900;2022-12-18T14:54:27;-3.30;99.90
66568;DHT22;53422;49.296;6.900;2022-12-18T14:57:23;-3.30;99.90
66568;DHT22;53422;49.296;6.900;2022-12-18T14:59:50;-3.30;99.90
66568;DHT22;53422;49.296;6.900;2022-12-18T15:02:25;-3.30;99.90
66568;DHT22;53422;49.296;6.900;2022-12-18T15:05:14;-3.20;99.90
66568;DHT22;53422;49.296;6.900;2022-12-18T15:07:43;-3.20;99.90
66568;DHT22;53422;49.296;6.900;2022-12-18T15:10:16;-3.20;99.90
66568;DHT22;53422;49.296;6.900;2022-12-18T15:12:50;-3.20;99.90
66568;DHT22;53422;49.296;6.900;2022-12-18T15:23:23;-3.20;99.90
66568;DHT22;53422;49.296;6.900;2022-12-18T15:25:59;-3.10;99.90
66568;DHT22;53422;49.296;6.900;2022-12-18T15:28:28;-3.10;99.90
66568;DHT22;53422;49.296;6.900;2022-12-18T15:36:17;-3.10;99.90
66568;DHT22;53422;49.296;6.900;2022-12-18T15:38:47;-3.10;99.90
66568;DHT22;53422;49.296;6.900;2022-12-18T15:41:18;-3.10;99.90
66568;DHT22;53422;49.296;6.900;2022-12-18T15:43:44;-3.10;99.90
66568;DHT22;53422;49.296;6.900;2022-12-18T15:46:21;-3.10;99.90
66568;DHT22;53422;49.296;6.900;2022-12-18T15:48:55;-3.10;99.90
66568;DHT22;53422;49.296;6.900;2022-12-18T15:51:28;-3.10;99.90
66568;DHT22;53422;49.296;6.900;2022-12-18T15:53:56;-3.10;99.90
66568;DHT22;53422;49.296;6.900;2022-12-18T15:56:22;-3.10;99.90
66568;DHT22;53422;49.296;6.900;2022-12-18T15:59:25;-3.10;99.90
66568;DHT22;53422;49.296;6.900;2022-12-18T16:01:51;-3.10;99.90
66568;DHT22;53422;49.296;6.900;2022-12-18T16:04:20;-3.10;99.90
66568;DHT22;53422;49.296;6.900;2022-12-18T16:06:46;-3.10;99.90
66568;DHT22;53422;49.296;6.900;2022-12-18T16:09:12;-3.10;99.90
66568;DHT22;53422;49.296;6.900;2022-12-18T16:11:39;-3.10;99.90
66568;DHT22;53422;49.296;6.900;2022-12-18T16:14:18;-3.10;99.90
66568;DHT22;53422;49.296;6.900;2022-12-18T16:16:45;-3.10;99.90
66568;DHT22;53422;49.296;6.900;2022-12-18T16:19:12;-3.10;99.90
66568;DHT22;53422;49.296;6.900;2022-12-18T16:21:38;-3.10;99.90
66568;DHT22;53422;49.296;6.900;2022-12-18T16:24:03;-3.10;99.90
66568;DHT22;53422;49.296;6.900;2022-12-18T16:26:31;-3.10;99.90
66568;DHT22;53422;49.296;6.900;2022-12-18T16:28:57;-3.10;99.90
66568;DHT22;53422;49.296;6.900;2022-12-18T16:31:22;-3.10;99.90
66568;DHT22;53422;49.296;6.900;2022-12-18T16:33:48;-3.10;99.90
66568;DHT22;53422;49.296;6.900;2022-12-18T16:36:14;-3.20;99.90
66568;DHT22;53422;49.296;6.900;2022-12-18T16:38:39;-3.20;99.90
66568;DHT22;53422;49.296;6.900;2022-12-18T16:41:18;-3.20;99.90
66568;DHT22;53422;49.296;6.900;2022-12-18T16:43:56;-3.20;99.90
66568;DHT22;53422;49.296;6.900;2022-12-18T16:46:22;-3.20;99.90
66568;DHT22;53422;49.296;6.900;2022-12-18T16:48:47;-3.10;99.90
66568;DHT22;53422;49.296;6.900;2022-12-18T16:51:13;-3.10;99.90
66568;DHT22;53422;49.296;6.900;2022-12-18T16:53:38;-3.10;99.90
66568;DHT22;53422;49.296;6.900;2022-12-18T16:56:05;-3.10;99.90
66568;DHT22;53422;49.296;6.900;2022-12-18T16:58:32;-3.10;99.90
66568;DHT22;53422;49.296;6.900;2022-12-18T17:00:57;-3.10;99.90
66568;DHT22;53422;49.296;6.900;2022-12-18T17:03:24;-3.10;99.90
66568;DHT22;53422;49.296;6.900;2022-12-18T17:05:49;-3.10;99.90
66568;DHT22;53422;49.296;6.900;2022-12-18T17:08:15;-3.10;99.90
66568;DHT22;53422;49.296;6.900;2022-12-18T17:10:41;-3.10;99.90
66568;DHT22;53422;49.296;6.900;2022-12-18T17:13:06;-3.10;99.90
66568;DHT22;53422;49.296;6.900;2022-12-18T17:15:36;-3.10;99.90
66568;DHT22;53422;49.296;6.900;2022-12-18T17:18:02;-3.20;99.90
66568;DHT22;53422;49.296;6.900;2022-12-18T17:20:29;-3.20;99.90
66568;DHT22;53422;49.296;6.900;2022-12-18T17:22:55;-3.20;99.90
66568;DHT22;53422;49.296;6.900;2022-12-18T17:25:23;-3.20;99.90
66568;DHT22;53422;49.296;6.900;2022-12-18T17:27:50;-3.20;99.90
66568;DHT22;53422;49.296;6.900;2022-12-18T17:30:16;-3.20;99.90
66568;DHT22;53422;49.296;6.900;2022-12-18T17:32:42;-3.30;99.90
66568;DHT22;53422;49.296;6.900;2022-12-18T17:35:07;-3.20;99.90
66568;DHT22;53422;49.296;6.900;2022-12-18T17:37:33;-3.30;99.90
66568;DHT22;53422;49.296;6.900;2022-12-18T17:39:59;-3.30;99.90
66568;DHT22;53422;49.296;6.900;2022-12-18T17:42:25;-3.20;99.90
66568;DHT22;53422;49.296;6.900;2022-12-18T17:44:51;-3.30;99.90
66568;DHT22;53422;49.296;6.900;2022-12-18T17:47:17;-3.30;99.90